sensor_id;sensor_type;location;lat;lon;timestamp;P1;durP1;ratioP1;P2;durP2;ratioP2
8474;SDS011;4274;52.012;8.448;2023-11-21T00:00:49;73.43;;;17.30;;
8474;SDS011;4274;52.012;8.448;2023-11-21T00:03:15;68.03;;;18.13;;
8474;SDS011;4274;52.012;8.448;2023-11-21T00:05:41;62.80;;;17.67;;
8474;SDS011;4274;52.012;8.448;2023-11-21T00:08:07;62.17;;;16.80;;
8474;SDS011;4274;52.012;8.448;2023-11-21T00:10:33;69.40;;;17.77;;
8474;SDS011;4274;52.012;8.448;2023-11-21T00:12:59;71.60;;;19.10;;
8474;SDS011;4274;52.012;8.448;2023-11-21T00:15:27;67.93;;;18.30;;
8474;SDS011;4274;52.012;8.448;2023-11-21T00:17:52;65.60;;;17.60;;
8474;SDS011;4274;52.012;8.448;2023-11-21T00:20:18;73.30;;;18.50;;
8474;SDS011;4274;52.012;8.448;2023-11-21T00:22:43;61.17;;;16.07;;
8474;SDS011;4274;52.012;8.448;2023-11-21T00:25:09;69.50;;;17.80;;
8474;SDS011;4274;52.012;8.448;2023-11-21T00:27:35;81.43;;;18.70;;
8474;SDS011;4274;52.012;8.448;2023-11-21T00:30:01;71.63;;;18.00;;
8474;SDS011;4274;52.012;8.448;2023-11-21T00:32:29;73.20;;;19.00;;
8474;SDS011;4274;52.012;8.448;2023-11-21T00:34:55;76.23;;;18.87;;
8474;SDS011;4274;52.012;8.448;2023-11-21T00:37:20;72.73;;;19.13;;
8474;SDS011;4274;52.012;8.448;2023-11-21T00:39:46;76.90;;;17.87;;
8474;SDS011;4274;52.012;8.448;2023-11-21T00:42:11;68.23;;;16.97;;
8474;SDS011;4274;52.012;8.448;2023-11-21T00:44:37;73.50;;;16.83;;
8474;SDS011;4274;52.012;8.448;2023-11-21T00:47:04;64.80;;;15.10;;
8474;SDS011;4274;52.012;8.448;2023-11-21T00:49:30;74.90;;;15.23;;
8474;SDS011;4274;52.012;8.448;2023-11-21T00:51:55;68.67;;;16.63;;
8474;SDS011;4274;52.012;8.448;2023-11-21T00:54:22;65.27;;;15.53;;
8474;SDS011;4274;52.012;8.448;2023-11-21T00:56:48;70.90;;;17.47;;
8474;SDS011;4274;52.012;8.448;2023-11-21T00:59:14;66.67;;;16.53;;
8474;SDS011;4274;52.012;8.448;2023-11-21T01:01:39;79.10;;;18.50;;
8474;SDS011;4274;52.012;8.448;2023-11-21T01:04:05;68.60;;;17.00;;
8474;SDS011;4274;52.012;8.448;2023-11-21T01:06:31;80.67;;;19.00;;
8474;SDS011;4274;52.012;8.448;2023-11-21T01:08:57;65.97;;;17.50;;
8474;SDS011;4274;52.012;8.448;2023-11-21T01:11:23;64.27;;;17.00;;
8474;SDS011;4274;52.012;8.448;2023-11-21T01:13:48;65.00;;;17.30;;
8474;SDS011;4274;52.012;8.448;2023-11-21T01:16:14;67.77;;;18.40;;
8474;SDS011;4274;52.012;8.448;2023-11-21T01:18:39;75.03;;;17.63;;
8474;SDS011;4274;52.012;8.448;2023-11-21T01:21:05;78.67;;;19.37;;
8474;SDS011;4274;52.012;8.448;2023-11-21T01:23:32;64.80;;;17.23;;
8474;SDS011;4274;52.012;8.448;2023-11-21T01:25:58;76.73;;;20.43;;
8474;SDS011;4274;52.012;8.448;2023-11-21T01:28:23;76.10;;;17.77;;
8474;SDS011;4274;52.012;8.448;2023-11-21T01:30:49;65.87;;;17.03;;
8474;SDS011;4274;52.012;8.448;2023-11-21T01:33:15;75.97;;;19.50;;
8474;SDS011;4274;52.012;8.448;2023-11-21T01:35:41;71.73;;;18.40;;
8474;SDS011;4274;52.012;8.448;2023-11-21T01:38:07;72.80;;;18.37;;
8474;SDS011;4274;52.012;8.448;2023-11-21T01:40:33;69.43;;;17.80;;
8474;SDS011;4274;52.012;8.448;2023-11-21T01:42:59;73.40;;;18.77;;
8474;SDS011;4274;52.012;8.448;2023-11-21T01:45:25;66.57;;;17.50;;
8474;SDS011;4274;52.012;8.448;2023-11-21T01:47:51;71.63;;;17.80;;
8474;SDS011;4274;52.012;8.448;2023-11-21T01:50:17;66.37;;;16.27;;
8474;SDS011;4274;52.012;8.448;2023-11-21T01:52:44;78.13;;;17.20;;
8474;SDS011;4274;52.012;8.448;2023-11-21T01:55:10;68.50;;;16.67;;
8474;SDS011;4274;52.012;8.448;2023-11-21T01:57:37;76.50;;;16.50;;
8474;SDS011;4274;52.012;8.448;2023-11-21T02:00:03;64.47;;;17.03;;
8474;SDS011;4274;52.012;8.448;2023-11-21T02:02:40;78.43;;;17.03;;
8474;SDS011;4274;52.012;8.448;2023-11-21T02:05:07;70.40;;;17.30;;
8474;SDS011;4274;52.012;8.448;2023-11-21T02:07:33;77.20;;;18.03;;
8474;SDS011;4274;52.012;8.448;2023-11-21T02:10:00;76.30;;;17.77;;
8474;SDS011;4274;52.012;8.448;2023-11-21T02:12:25;68.70;;;17.23;;
8474;SDS011;4274;52.012;8.448;2023-11-21T02:14:51;64.03;;;15.77;;
8474;SDS011;4274;52.012;8.448;2023-11-21T02:17:17;77.27;;;17.80;;
8474;SDS011;4274;52.012;8.448;2023-11-21T02:19:43;74.23;;;16.90;;
8474;SDS011;4274;52.012;8.448;2023-11-21T02:22:09;73.77;;;18.10;;
8474;SDS011;4274;52.012;8.448;2023-11-21T02:24:36;66.97;;;15.67;;
8474;SDS011;4274;52.012;8.448;2023-11-21T02:27:02;61.47;;;16.13;;
8474;SDS011;4274;52.012;8.448;2023-11-21T02:29:28;62.60;;;16.03;;
8474;SDS011;4274;52.012;8.448;2023-11-21T02:31:54;79.40;;;17.27;;
8474;SDS011;4274;52.012;8.448;2023-11-21T02:34:20;72.67;;;17.00;;
8474;SDS011;4274;52.012;8.448;2023-11-21T02:36:46;69.90;;;15.30;;
8474;SDS011;4274;52.012;8.448;2023-11-21T02:39:14;69.60;;;16.17;;
8474;SDS011;4274;52.012;8.448;2023-11-21T02:41:41;76.83;;;16.90;;
8474;SDS011;4274;52.012;8.448;2023-11-21T02:44:07;64.90;;;16.80;;
8474;SDS011;4274;52.012;8.448;2023-11-21T02:46:33;74.20;;;16.70;;
8474;SDS011;4274;52.012;8.448;2023-11-21T02:49:00;71.30;;;17.70;;
8474;SDS011;4274;52.012;8.448;2023-11-21T02:51:27;74.43;;;18.07;;
8474;SDS011;4274;52.012;8.448;2023-11-21T02:53:53;69.20;;;16.63;;
8474;SDS011;4274;52.012;8.448;2023-11-21T02:56:19;76.40;;;18.93;;
8474;SDS011;4274;52.012;8.448;2023-11-21T02:58:45;76.00;;;18.07;;
8474;SDS011;4274;52.012;8.448;2023-11-21T03:01:10;76.07;;;18.40;;
8474;SDS011;4274;52.012;8.448;2023-11-21T03:03:37;71.20;;;17.50;;
8474;SDS011;4274;52.012;8.448;2023-11-21T03:06:05;71.43;;;17.30;;
8474;SDS011;4274;52.012;8.448;2023-11-21T03:08:31;73.73;;;18.30;;
8474;SDS011;4274;52.012;8.448;2023-11-21T03:10:57;82.80;;;17.30;;
8474;SDS011;4274;52.012;8.448;2023-11-21T03:13:23;75.80;;;18.50;;
8474;SDS011;4274;52.012;8.448;2023-11-21T03:15:48;73.90;;;17.50;;
8474;SDS011;4274;52.012;8.448;2023-11-21T03:18:14;73.77;;;18.50;;
8474;SDS011;4274;52.012;8.448;2023-11-21T03:20:39;78.50;;;18.70;;
8474;SDS011;4274;52.012;8.448;2023-11-21T03:23:05;101.43;;;19.57;;
8474;SDS011;4274;52.012;8.448;2023-11-21T03:25:30;84.87;;;20.43;;
8474;SDS011;4274;52.012;8.448;2023-11-21T03:27:56;82.23;;;18.63;;
8474;SDS011;4274;52.012;8.448;2023-11-21T03:30:21;91.07;;;19.57;;
8474;SDS011;4274;52.012;8.448;2023-11-21T03:32:47;83.57;;;21.40;;
8474;SDS011;4274;52.012;8.448;2023-11-21T03:35:13;95.80;;;19.63;;
8474;SDS011;4274;52.012;8.448;2023-11-21T03:37:38;94.50;;;21.27;;
8474;SDS011;4274;52.012;8.448;2023-11-21T03:40:06;90.63;;;20.13;;
8474;SDS011;4274;52.012;8.448;2023-11-21T03:42:34;91.33;;;19.43;;
8474;SDS011;4274;52.012;8.448;2023-11-21T03:44:59;81.23;;;19.53;;
8474;SDS011;4274;52.012;8.448;2023-11-21T03:47:26;89.90;;;20.20;;
8474;SDS011;4274;52.012;8.448;2023-11-21T03:49:53;93.73;;;19.97;;
8474;SDS011;4274;52.012;8.448;2023-11-21T03:52:18;84.43;;;19.00;;
8474;SDS011;4274;52.012;8.448;2023-11-21T03:54:44;98.73;;;19.07;;
8474;SDS011;4274;52.012;8.448;2023-11-21T03:57:10;79.53;;;19.87;;
8474;SDS011;4274;52.012;8.448;2023-11-21T03:59:36;78.93;;;21.47;;
8474;SDS011;4274;52.012;8.448;2023-11-21T04:02:05;104.70;;;20.37;;
8474;SDS011;4274;52.012;8.448;2023-11-21T04:04:30;94.57;;;20.43;;
8474;SDS011;4274;52.012;8.448;2023-11-21T04:06:56;80.80;;;17.70;;
8474;SDS011;4274;52.012;8.448;2023-11-21T04:09:21;85.23;;;19.37;;
8474;SDS011;4274;52.012;8.448;2023-11-21T04:11:50;88.87;;;19.00;;
8474;SDS011;4274;52.012;8.448;2023-11-21T04:14:18;74.00;;;20.97;;
8474;SDS011;4274;52.012;8.448;2023-11-21T04:16:44;98.87;;;22.13;;
8474;SDS011;4274;52.012;8.448;2023-11-21T04:19:10;91.83;;;21.60;;
8474;SDS011;4274;52.012;8.448;2023-11-21T04:21:38;90.50;;;21.60;;
8474;SDS011;4274;52.012;8.448;2023-11-21T04:24:04;83.03;;;21.10;;
8474;SDS011;4274;52.012;8.448;2023-11-21T04:26:31;89.20;;;22.13;;
8474;SDS011;4274;52.012;8.448;2023-11-21T04:28:56;87.00;;;20.57;;
8474;SDS011;4274;52.012;8.448;2023-11-21T04:31:22;94.70;;;22.70;;
8474;SDS011;4274;52.012;8.448;2023-11-21T04:33:48;86.97;;;21.23;;
8474;SDS011;4274;52.012;8.448;2023-11-21T04:36:13;91.50;;;23.33;;
8474;SDS011;4274;52.012;8.448;2023-11-21T04:38:39;86.93;;;24.00;;
8474;SDS011;4274;52.012;8.448;2023-11-21T04:41:05;77.87;;;21.23;;
8474;SDS011;4274;52.012;8.448;2023-11-21T04:43:31;90.27;;;24.17;;
8474;SDS011;4274;52.012;8.448;2023-11-21T04:45:57;86.37;;;22.83;;
8474;SDS011;4274;52.012;8.448;2023-11-21T04:48:22;90.13;;;23.57;;
8474;SDS011;4274;52.012;8.448;2023-11-21T04:50:48;85.47;;;25.10;;
8474;SDS011;4274;52.012;8.448;2023-11-21T04:53:13;76.20;;;23.07;;
8474;SDS011;4274;52.012;8.448;2023-11-21T04:55:39;86.97;;;23.60;;
8474;SDS011;4274;52.012;8.448;2023-11-21T04:58:06;85.07;;;23.67;;
8474;SDS011;4274;52.012;8.448;2023-11-21T05:00:33;81.13;;;23.70;;
8474;SDS011;4274;52.012;8.448;2023-11-21T05:02:59;83.43;;;22.37;;
8474;SDS011;4274;52.012;8.448;2023-11-21T05:05:26;87.93;;;25.10;;
8474;SDS011;4274;52.012;8.448;2023-11-21T05:07:52;79.00;;;22.97;;
8474;SDS011;4274;52.012;8.448;2023-11-21T05:10:18;91.30;;;22.33;;
8474;SDS011;4274;52.012;8.448;2023-11-21T05:12:44;79.30;;;22.37;;
8474;SDS011;4274;52.012;8.448;2023-11-21T05:15:10;91.30;;;22.83;;
8474;SDS011;4274;52.012;8.448;2023-11-21T05:17:39;74.83;;;22.83;;
8474;SDS011;4274;52.012;8.448;2023-11-21T05:20:12;80.57;;;22.63;;
8474;SDS011;4274;52.012;8.448;2023-11-21T05:22:39;76.33;;;21.17;;
8474;SDS011;4274;52.012;8.448;2023-11-21T05:25:05;81.03;;;22.00;;
8474;SDS011;4274;52.012;8.448;2023-11-21T05:27:33;85.60;;;22.10;;
8474;SDS011;4274;52.012;8.448;2023-11-21T05:29:59;74.40;;;20.43;;
8474;SDS011;4274;52.012;8.448;2023-11-21T05:32:26;88.27;;;22.73;;
8474;SDS011;4274;52.012;8.448;2023-11-21T05:34:52;89.00;;;21.53;;
8474;SDS011;4274;52.012;8.448;2023-11-21T05:37:18;79.23;;;20.50;;
8474;SDS011;4274;52.012;8.448;2023-11-21T05:39:43;72.67;;;20.70;;
8474;SDS011;4274;52.012;8.448;2023-11-21T05:42:09;85.57;;;21.73;;
8474;SDS011;4274;52.012;8.448;2023-11-21T05:44:36;79.17;;;21.43;;
8474;SDS011;4274;52.012;8.448;2023-11-21T05:47:06;83.30;;;22.00;;
8474;SDS011;4274;52.012;8.448;2023-11-21T05:49:32;80.57;;;22.00;;
8474;SDS011;4274;52.012;8.448;2023-11-21T05:51:58;81.57;;;20.53;;
8474;SDS011;4274;52.012;8.448;2023-11-21T05:54:25;95.60;;;22.87;;
8474;SDS011;4274;52.012;8.448;2023-11-21T05:56:51;76.17;;;21.03;;
8474;SDS011;4274;52.012;8.448;2023-11-21T05:59:17;77.80;;;21.20;;
8474;SDS011;4274;52.012;8.448;2023-11-21T06:01:42;93.27;;;21.57;;
8474;SDS011;4274;52.012;8.448;2023-11-21T06:04:08;86.97;;;20.63;;
8474;SDS011;4274;52.012;8.448;2023-11-21T06:06:34;81.10;;;21.00;;
8474;SDS011;4274;52.012;8.448;2023-11-21T06:09:00;81.57;;;21.03;;
8474;SDS011;4274;52.012;8.448;2023-11-21T06:11:26;87.60;;;20.07;;
8474;SDS011;4274;52.012;8.448;2023-11-21T06:13:51;72.40;;;20.87;;
8474;SDS011;4274;52.012;8.448;2023-11-21T06:16:18;79.53;;;22.13;;
8474;SDS011;4274;52.012;8.448;2023-11-21T06:18:45;72.40;;;19.50;;
8474;SDS011;4274;52.012;8.448;2023-11-21T06:21:11;81.40;;;21.33;;
8474;SDS011;4274;52.012;8.448;2023-11-21T06:23:37;80.37;;;20.20;;
8474;SDS011;4274;52.012;8.448;2023-11-21T06:26:03;75.90;;;19.93;;
8474;SDS011;4274;52.012;8.448;2023-11-21T06:28:29;70.93;;;19.63;;
8474;SDS011;4274;52.012;8.448;2023-11-21T06:30:55;83.87;;;20.73;;
8474;SDS011;4274;52.012;8.448;2023-11-21T06:33:22;76.80;;;20.73;;
8474;SDS011;4274;52.012;8.448;2023-11-21T06:35:47;82.17;;;20.23;;
8474;SDS011;4274;52.012;8.448;2023-11-21T06:38:13;76.10;;;20.50;;
8474;SDS011;4274;52.012;8.448;2023-11-21T06:40:38;76.53;;;20.70;;
8474;SDS011;4274;52.012;8.448;2023-11-21T06:43:05;83.67;;;21.97;;
8474;SDS011;4274;52.012;8.448;2023-11-21T06:45:32;81.60;;;20.17;;
8474;SDS011;4274;52.012;8.448;2023-11-21T06:47:59;86.53;;;21.40;;
8474;SDS011;4274;52.012;8.448;2023-11-21T06:50:25;80.87;;;22.27;;
8474;SDS011;4274;52.012;8.448;2023-11-21T06:52:50;82.63;;;20.17;;
8474;SDS011;4274;52.012;8.448;2023-11-21T06:55:16;76.97;;;20.63;;
8474;SDS011;4274;52.012;8.448;2023-11-21T06:57:42;78.90;;;21.93;;
8474;SDS011;4274;52.012;8.448;2023-11-21T07:00:08;80.17;;;19.47;;
8474;SDS011;4274;52.012;8.448;2023-11-21T07:02:34;86.20;;;22.10;;
8474;SDS011;4274;52.012;8.448;2023-11-21T07:04:59;81.57;;;19.40;;
8474;SDS011;4274;52.012;8.448;2023-11-21T07:07:25;77.07;;;19.47;;
8474;SDS011;4274;52.012;8.448;2023-11-21T07:09:52;77.67;;;20.97;;
8474;SDS011;4274;52.012;8.448;2023-11-21T07:12:17;90.33;;;21.27;;
8474;SDS011;4274;52.012;8.448;2023-11-21T07:14:43;79.40;;;18.47;;
8474;SDS011;4274;52.012;8.448;2023-11-21T07:17:10;103.10;;;20.10;;
8474;SDS011;4274;52.012;8.448;2023-11-21T07:19:37;90.37;;;20.67;;
8474;SDS011;4274;52.012;8.448;2023-11-21T07:22:03;92.13;;;19.63;;
8474;SDS011;4274;52.012;8.448;2023-11-21T07:24:29;89.37;;;19.23;;
8474;SDS011;4274;52.012;8.448;2023-11-21T07:26:56;89.40;;;19.27;;
8474;SDS011;4274;52.012;8.448;2023-11-21T07:29:23;92.97;;;19.13;;
8474;SDS011;4274;52.012;8.448;2023-11-21T07:31:50;91.30;;;19.80;;
8474;SDS011;4274;52.012;8.448;2023-11-21T07:34:16;110.93;;;21.33;;
8474;SDS011;4274;52.012;8.448;2023-11-21T07:36:42;100.37;;;22.00;;
8474;SDS011;4274;52.012;8.448;2023-11-21T07:39:07;89.57;;;20.10;;
8474;SDS011;4274;52.012;8.448;2023-11-21T07:41:33;94.10;;;19.30;;
8474;SDS011;4274;52.012;8.448;2023-11-21T07:43:58;83.43;;;19.07;;
8474;SDS011;4274;52.012;8.448;2023-11-21T07:46:25;93.17;;;20.30;;
8474;SDS011;4274;52.012;8.448;2023-11-21T07:48:51;92.23;;;19.43;;
8474;SDS011;4274;52.012;8.448;2023-11-21T07:51:17;83.23;;;18.90;;
8474;SDS011;4274;52.012;8.448;2023-11-21T07:53:43;86.63;;;18.70;;
8474;SDS011;4274;52.012;8.448;2023-11-21T07:56:08;98.50;;;20.53;;
8474;SDS011;4274;52.012;8.448;2023-11-21T07:58:35;91.27;;;20.97;;
8474;SDS011;4274;52.012;8.448;2023-11-21T08:01:01;83.87;;;19.50;;
8474;SDS011;4274;52.012;8.448;2023-11-21T08:03:27;85.37;;;20.00;;
8474;SDS011;4274;52.012;8.448;2023-11-21T08:05:55;82.30;;;17.03;;
8474;SDS011;4274;52.012;8.448;2023-11-21T08:08:21;85.67;;;18.30;;
8474;SDS011;4274;52.012;8.448;2023-11-21T08:10:47;85.97;;;18.90;;
8474;SDS011;4274;52.012;8.448;2023-11-21T08:13:13;78.73;;;17.00;;
8474;SDS011;4274;52.012;8.448;2023-11-21T08:15:40;82.60;;;17.83;;
8474;SDS011;4274;52.012;8.448;2023-11-21T08:18:10;74.57;;;15.50;;
8474;SDS011;4274;52.012;8.448;2023-11-21T08:20:35;81.13;;;18.17;;
8474;SDS011;4274;52.012;8.448;2023-11-21T08:23:03;74.27;;;18.73;;
8474;SDS011;4274;52.012;8.448;2023-11-21T08:25:30;80.30;;;18.30;;
8474;SDS011;4274;52.012;8.448;2023-11-21T08:27:56;82.77;;;19.07;;
8474;SDS011;4274;52.012;8.448;2023-11-21T08:30:22;85.37;;;18.23;;
8474;SDS011;4274;52.012;8.448;2023-11-21T08:32:49;79.17;;;15.70;;
8474;SDS011;4274;52.012;8.448;2023-11-21T08:35:17;75.50;;;16.53;;
8474;SDS011;4274;52.012;8.448;2023-11-21T08:37:42;75.27;;;17.33;;
8474;SDS011;4274;52.012;8.448;2023-11-21T08:40:08;82.23;;;16.63;;
8474;SDS011;4274;52.012;8.448;2023-11-21T08:42:37;83.90;;;18.70;;
8474;SDS011;4274;52.012;8.448;2023-11-21T08:45:03;73.33;;;16.30;;
8474;SDS011;4274;52.012;8.448;2023-11-21T08:47:29;76.30;;;15.70;;
8474;SDS011;4274;52.012;8.448;2023-11-21T08:49:55;73.20;;;15.07;;
8474;SDS011;4274;52.012;8.448;2023-11-21T08:52:21;62.67;;;13.40;;
8474;SDS011;4274;52.012;8.448;2023-11-21T08:54:49;70.10;;;13.30;;
8474;SDS011;4274;52.012;8.448;2023-11-21T08:57:24;63.77;;;13.07;;
8474;SDS011;4274;52.012;8.448;2023-11-21T08:59:50;65.60;;;14.50;;
8474;SDS011;4274;52.012;8.448;2023-11-21T09:02:20;66.37;;;13.93;;
8474;SDS011;4274;52.012;8.448;2023-11-21T09:04:48;70.47;;;15.00;;
8474;SDS011;4274;52.012;8.448;2023-11-21T09:07:14;62.53;;;12.10;;
8474;SDS011;4274;52.012;8.448;2023-11-21T09:09:40;62.43;;;13.30;;
8474;SDS011;4274;52.012;8.448;2023-11-21T09:12:05;60.97;;;13.60;;
8474;SDS011;4274;52.012;8.448;2023-11-21T09:14:31;64.57;;;12.50;;
8474;SDS011;4274;52.012;8.448;2023-11-21T09:16:57;64.77;;;12.97;;
8474;SDS011;4274;52.012;8.448;2023-11-21T09:19:22;58.20;;;12.10;;
8474;SDS011;4274;52.012;8.448;2023-11-21T09:21:48;63.00;;;11.83;;
8474;SDS011;4274;52.012;8.448;2023-11-21T09:24:14;64.20;;;13.30;;
8474;SDS011;4274;52.012;8.448;2023-11-21T09:26:39;64.70;;;12.80;;
8474;SDS011;4274;52.012;8.448;2023-11-21T09:29:05;64.00;;;12.67;;
8474;SDS011;4274;52.012;8.448;2023-11-21T09:31:30;63.30;;;13.23;;
8474;SDS011;4274;52.012;8.448;2023-11-21T09:33:58;64.47;;;12.37;;
8474;SDS011;4274;52.012;8.448;2023-11-21T09:36:24;58.27;;;12.13;;
8474;SDS011;4274;52.012;8.448;2023-11-21T09:38:52;67.38;;;12.73;;
8474;SDS011;4274;52.012;8.448;2023-11-21T09:41:37;58.30;;;12.27;;
8474;SDS011;4274;52.012;8.448;2023-11-21T09:44:09;59.23;;;11.63;;
8474;SDS011;4274;52.012;8.448;2023-11-21T09:46:40;61.77;;;13.63;;
8474;SDS011;4274;52.012;8.448;2023-11-21T09:49:08;55.17;;;10.83;;
8474;SDS011;4274;52.012;8.448;2023-11-21T09:51:42;54.17;;;11.97;;
8474;SDS011;4274;52.012;8.448;2023-11-21T09:54:08;56.23;;;10.83;;
8474;SDS011;4274;52.012;8.448;2023-11-21T09:56:37;54.33;;;9.70;;
8474;SDS011;4274;52.012;8.448;2023-11-21T09:59:03;53.83;;;10.90;;
8474;SDS011;4274;52.012;8.448;2023-11-21T10:01:32;51.17;;;9.00;;
8474;SDS011;4274;52.012;8.448;2023-11-21T10:03:59;50.67;;;8.97;;
8474;SDS011;4274;52.012;8.448;2023-11-21T10:06:25;51.93;;;10.10;;
8474;SDS011;4274;52.012;8.448;2023-11-21T10:08:52;48.30;;;8.40;;
8474;SDS011;4274;52.012;8.448;2023-11-21T10:11:19;47.97;;;7.73;;
8474;SDS011;4274;52.012;8.448;2023-11-21T10:13:47;47.10;;;7.50;;
8474;SDS011;4274;52.012;8.448;2023-11-21T10:16:15;49.10;;;8.40;;
8474;SDS011;4274;52.012;8.448;2023-11-21T10:18:46;47.67;;;8.40;;
8474;SDS011;4274;52.012;8.448;2023-11-21T10:21:14;50.27;;;9.13;;
8474;SDS011;4274;52.012;8.448;2023-11-21T10:23:40;47.73;;;7.47;;
8474;SDS011;4274;52.012;8.448;2023-11-21T10:26:06;48.80;;;8.33;;
8474;SDS011;4274;52.012;8.448;2023-11-21T10:28:37;47.67;;;8.17;;
8474;SDS011;4274;52.012;8.448;2023-11-21T10:31:06;50.50;;;8.50;;
8474;SDS011;4274;52.012;8.448;2023-11-21T10:33:32;49.20;;;8.60;;
8474;SDS011;4274;52.012;8.448;2023-11-21T10:35:58;52.03;;;8.70;;
8474;SDS011;4274;52.012;8.448;2023-11-21T10:38:26;52.60;;;8.90;;
8474;SDS011;4274;52.012;8.448;2023-11-21T10:40:53;52.27;;;8.13;;
8474;SDS011;4274;52.012;8.448;2023-11-21T10:43:19;50.97;;;8.00;;
8474;SDS011;4274;52.012;8.448;2023-11-21T10:45:49;47.07;;;8.10;;
8474;SDS011;4274;52.012;8.448;2023-11-21T10:48:15;84.40;;;10.90;;
8474;SDS011;4274;52.012;8.448;2023-11-21T10:50:42;105.10;;;13.03;;
8474;SDS011;4274;52.012;8.448;2023-11-21T10:53:09;60.43;;;8.07;;
8474;SDS011;4274;52.012;8.448;2023-11-21T10:55:36;56.73;;;7.00;;
8474;SDS011;4274;52.012;8.448;2023-11-21T10:58:03;67.00;;;8.30;;
8474;SDS011;4274;52.012;8.448;2023-11-21T11:00:30;47.37;;;7.73;;
8474;SDS011;4274;52.012;8.448;2023-11-21T11:02:57;45.13;;;6.10;;
8474;SDS011;4274;52.012;8.448;2023-11-21T11:05:25;91.90;;;7.77;;
8474;SDS011;4274;52.012;8.448;2023-11-21T11:08:07;52.83;;;7.43;;
8474;SDS011;4274;52.012;8.448;2023-11-21T11:10:34;65.47;;;7.57;;
8474;SDS011;4274;52.012;8.448;2023-11-21T11:13:01;49.03;;;7.27;;
8474;SDS011;4274;52.012;8.448;2023-11-21T11:15:27;56.43;;;7.20;;
8474;SDS011;4274;52.012;8.448;2023-11-21T11:17:53;97.63;;;9.20;;
8474;SDS011;4274;52.012;8.448;2023-11-21T11:20:22;48.23;;;7.03;;
8474;SDS011;4274;52.012;8.448;2023-11-21T11:22:55;46.90;;;7.00;;
8474;SDS011;4274;52.012;8.448;2023-11-21T11:31:23;46.10;;;6.93;;
8474;SDS011;4274;52.012;8.448;2023-11-21T11:34:23;44.00;;;6.40;;
8474;SDS011;4274;52.012;8.448;2023-11-21T11:37:07;43.97;;;6.20;;
8474;SDS011;4274;52.012;8.448;2023-11-21T11:39:40;44.07;;;7.30;;
8474;SDS011;4274;52.012;8.448;2023-11-21T11:42:16;45.23;;;6.80;;
8474;SDS011;4274;52.012;8.448;2023-11-21T11:47:30;47.03;;;7.73;;
8474;SDS011;4274;52.012;8.448;2023-11-21T11:55:00;46.77;;;8.03;;
8474;SDS011;4274;52.012;8.448;2023-11-21T11:57:27;49.73;;;9.03;;
8474;SDS011;4274;52.012;8.448;2023-11-21T12:02:48;47.50;;;9.13;;
8474;SDS011;4274;52.012;8.448;2023-11-21T12:05:15;51.23;;;10.80;;
8474;SDS011;4274;52.012;8.448;2023-11-21T12:07:44;51.20;;;10.03;;
8474;SDS011;4274;52.012;8.448;2023-11-21T12:10:16;51.73;;;10.90;;
8474;SDS011;4274;52.012;8.448;2023-11-21T12:12:44;51.97;;;10.83;;
8474;SDS011;4274;52.012;8.448;2023-11-21T12:15:11;55.90;;;11.20;;
8474;SDS011;4274;52.012;8.448;2023-11-21T12:17:38;53.07;;;10.93;;
8474;SDS011;4274;52.012;8.448;2023-11-21T12:20:04;53.07;;;10.97;;
8474;SDS011;4274;52.012;8.448;2023-11-21T12:22:39;52.83;;;10.90;;
8474;SDS011;4274;52.012;8.448;2023-11-21T12:25:29;54.77;;;11.47;;
8474;SDS011;4274;52.012;8.448;2023-11-21T12:27:59;52.17;;;9.83;;
8474;SDS011;4274;52.012;8.448;2023-11-21T12:30:26;54.50;;;10.50;;
8474;SDS011;4274;52.012;8.448;2023-11-21T12:32:55;52.47;;;10.70;;
8474;SDS011;4274;52.012;8.448;2023-11-21T12:35:26;55.70;;;12.13;;
8474;SDS011;4274;52.012;8.448;2023-11-21T12:37:58;58.53;;;14.17;;
8474;SDS011;4274;52.012;8.448;2023-11-21T12:40:27;55.17;;;12.40;;
8474;SDS011;4274;52.012;8.448;2023-11-21T12:42:53;55.00;;;12.87;;
8474;SDS011;4274;52.012;8.448;2023-11-21T12:47:51;58.60;;;11.37;;
8474;SDS011;4274;52.012;8.448;2023-11-21T12:50:23;51.53;;;10.13;;
8474;SDS011;4274;52.012;8.448;2023-11-21T12:52:53;51.60;;;9.90;;
8474;SDS011;4274;52.012;8.448;2023-11-21T12:55:23;49.90;;;9.37;;
8474;SDS011;4274;52.012;8.448;2023-11-21T12:57:49;55.00;;;10.20;;
8474;SDS011;4274;52.012;8.448;2023-11-21T13:00:32;52.30;;;10.80;;
8474;SDS011;4274;52.012;8.448;2023-11-21T13:03:02;53.27;;;9.27;;
8474;SDS011;4274;52.012;8.448;2023-11-21T13:05:30;47.50;;;8.50;;
8474;SDS011;4274;52.012;8.448;2023-11-21T13:07:58;49.00;;;9.47;;
8474;SDS011;4274;52.012;8.448;2023-11-21T13:10:27;47.50;;;8.80;;
8474;SDS011;4274;52.012;8.448;2023-11-21T13:12:56;49.30;;;9.00;;
8474;SDS011;4274;52.012;8.448;2023-11-21T13:15:24;47.37;;;8.27;;
8474;SDS011;4274;52.012;8.448;2023-11-21T13:17:49;47.10;;;8.43;;
8474;SDS011;4274;52.012;8.448;2023-11-21T13:20:16;48.80;;;8.27;;
8474;SDS011;4274;52.012;8.448;2023-11-21T13:22:54;50.07;;;8.57;;
8474;SDS011;4274;52.012;8.448;2023-11-21T13:25:26;50.23;;;8.50;;
8474;SDS011;4274;52.012;8.448;2023-11-21T13:27:53;53.17;;;8.10;;
8474;SDS011;4274;52.012;8.448;2023-11-21T13:30:23;48.50;;;8.10;;
8474;SDS011;4274;52.012;8.448;2023-11-21T13:32:53;45.07;;;7.00;;
8474;SDS011;4274;52.012;8.448;2023-11-21T13:35:22;46.13;;;7.27;;
8474;SDS011;4274;52.012;8.448;2023-11-21T13:37:56;47.93;;;8.23;;
8474;SDS011;4274;52.012;8.448;2023-11-21T13:40:25;50.27;;;8.03;;
8474;SDS011;4274;52.012;8.448;2023-11-21T13:42:51;46.67;;;7.17;;
8474;SDS011;4274;52.012;8.448;2023-11-21T13:45:22;49.40;;;8.13;;
8474;SDS011;4274;52.012;8.448;2023-11-21T13:47:52;47.57;;;9.10;;
8474;SDS011;4274;52.012;8.448;2023-11-21T13:50:23;45.33;;;7.20;;
8474;SDS011;4274;52.012;8.448;2023-11-21T13:52:58;50.77;;;10.90;;
8474;SDS011;4274;52.012;8.448;2023-11-21T13:55:29;52.90;;;8.50;;
8474;SDS011;4274;52.012;8.448;2023-11-21T13:57:55;45.97;;;7.47;;
8474;SDS011;4274;52.012;8.448;2023-11-21T14:00:20;47.17;;;7.70;;
8474;SDS011;4274;52.012;8.448;2023-11-21T14:03:15;44.80;;;7.17;;
8474;SDS011;4274;52.012;8.448;2023-11-21T14:05:44;44.87;;;7.20;;
8474;SDS011;4274;52.012;8.448;2023-11-21T14:08:12;46.53;;;7.30;;
8474;SDS011;4274;52.012;8.448;2023-11-21T14:10:41;45.43;;;7.63;;
8474;SDS011;4274;52.012;8.448;2023-11-21T14:13:15;46.90;;;7.70;;
8474;SDS011;4274;52.012;8.448;2023-11-21T14:15:44;42.63;;;6.43;;
8474;SDS011;4274;52.012;8.448;2023-11-21T14:18:11;49.80;;;7.80;;
8474;SDS011;4274;52.012;8.448;2023-11-21T14:20:42;46.30;;;7.07;;
8474;SDS011;4274;52.012;8.448;2023-11-21T14:23:07;44.10;;;6.77;;
8474;SDS011;4274;52.012;8.448;2023-11-21T14:25:35;45.23;;;7.27;;
8474;SDS011;4274;52.012;8.448;2023-11-21T14:28:02;45.97;;;7.20;;
8474;SDS011;4274;52.012;8.448;2023-11-21T14:30:29;44.50;;;7.23;;
8474;SDS011;4274;52.012;8.448;2023-11-21T14:32:57;53.10;;;8.60;;
8474;SDS011;4274;52.012;8.448;2023-11-21T14:35:25;48.37;;;7.87;;
8474;SDS011;4274;52.012;8.448;2023-11-21T14:37:52;44.50;;;7.50;;
8474;SDS011;4274;52.012;8.448;2023-11-21T14:40:18;47.73;;;6.83;;
8474;SDS011;4274;52.012;8.448;2023-11-21T14:42:49;44.60;;;6.57;;
8474;SDS011;4274;52.012;8.448;2023-11-21T14:45:18;45.73;;;6.70;;
8474;SDS011;4274;52.012;8.448;2023-11-21T14:47:45;46.20;;;8.10;;
8474;SDS011;4274;52.012;8.448;2023-11-21T14:50:21;45.10;;;7.80;;
8474;SDS011;4274;52.012;8.448;2023-11-21T14:53:05;48.07;;;7.20;;
8474;SDS011;4274;52.012;8.448;2023-11-21T14:55:34;45.30;;;7.10;;
8474;SDS011;4274;52.012;8.448;2023-11-21T14:58:16;44.80;;;6.97;;
8474;SDS011;4274;52.012;8.448;2023-11-21T15:00:51;44.90;;;6.50;;
8474;SDS011;4274;52.012;8.448;2023-11-21T15:03:26;44.40;;;6.90;;
8474;SDS011;4274;52.012;8.448;2023-11-21T15:05:55;46.90;;;7.40;;
8474;SDS011;4274;52.012;8.448;2023-11-21T15:08:21;45.17;;;7.30;;
8474;SDS011;4274;52.012;8.448;2023-11-21T15:10:53;51.20;;;7.63;;